createdAt,value
2022-10-14T00:02:09.342Z,24.37
2022-10-14T00:04:36.507Z,23.27
2022-10-14T00:07:03.638Z,29.30
2022-10-14T00:09:30.723Z,27.27
2022-10-14T00:11:57.864Z,26.77
2022-10-14T00:14:25.468Z,33.93
2022-10-14T00:16:55.010Z,25.60
2022-10-14T00:19:22.128Z,36.87
2022-10-14T00:21:50.581Z,28.60
2022-10-14T00:24:17.711Z,33.17
2022-10-14T00:26:45.205Z,32.37
2022-10-14T00:29:13.388Z,35.00
2022-10-14T00:31:40.773Z,36.90
2022-10-14T00:34:09.227Z,32.60
2022-10-14T00:36:36.287Z,26.80
2022-10-14T00:39:03.441Z,38.20
2022-10-14T00:41:32.392Z,24.43
2022-10-14T00:44:01.527Z,27.23
2022-10-14T00:46:29.636Z,25.30
2022-10-14T00:49:02.574Z,28.90
2022-10-14T00:51:31.042Z,30.97
2022-10-14T00:53:58.450Z,29.00
2022-10-14T00:56:27.673Z,27.13
2022-10-14T00:58:54.808Z,28.67
2022-10-14T01:01:22.047Z,24.57
2022-10-14T01:03:49.125Z,34.40
2022-10-14T01:06:21.505Z,32.53
2022-10-14T01:08:54.787Z,39.40
2022-10-14T01:11:26.120Z,32.13
2022-10-14T01:13:59.016Z,34.27
2022-10-14T01:16:32.518Z,43.57
2022-10-14T01:19:02.973Z,34.63
2022-10-14T01:21:34.183Z,32.03
2022-10-14T01:24:21.115Z,38.10
2022-10-14T01:27:05.332Z,40.60
2022-10-14T01:29:54.246Z,35.60
2022-10-14T01:32:24.772Z,40.87
2022-10-14T01:34:53.935Z,38.80
2022-10-14T01:37:24.396Z,37.20
2022-10-14T01:39:55.937Z,42.27
2022-10-14T01:42:24.138Z,36.40
2022-10-14T01:44:55.705Z,42.80
2022-10-14T01:47:24.366Z,44.60
2022-10-14T01:49:54.252Z,42.93
2022-10-14T01:52:23.210Z,49.93
2022-10-14T01:54:53.006Z,41.00
2022-10-14T01:57:22.697Z,51.73
2022-10-14T01:59:50.964Z,53.13
2022-10-14T02:02:20.015Z,51.83
2022-10-14T02:04:47.438Z,47.17
2022-10-14T02:07:18.642Z,45.03
2022-10-14T02:09:52.259Z,43.00
2022-10-14T02:12:24.308Z,39.10
2022-10-14T02:14:53.660Z,44.10
2022-10-14T02:17:24.000Z,53.77
2022-10-14T02:19:53.260Z,42.90
2022-10-14T02:22:23.865Z,43.87
2022-10-14T02:24:52.566Z,41.57
2022-10-14T02:27:20.850Z,44.23
2022-10-14T02:29:49.094Z,42.87
2022-10-14T02:32:19.226Z,45.17
2022-10-14T02:34:49.811Z,46.97
2022-10-14T02:37:17.894Z,54.20
2022-10-14T02:39:46.870Z,38.90
2022-10-14T02:42:14.047Z,47.73
2022-10-14T02:44:51.972Z,50.10
2022-10-14T02:47:19.537Z,49.57
2022-10-14T02:49:47.986Z,47.40
2022-10-14T02:52:15.075Z,44.37
2022-10-14T02:54:42.166Z,51.17
2022-10-14T02:57:09.321Z,47.03
2022-10-14T02:59:36.526Z,42.23
2022-10-14T03:02:04.802Z,43.90
2022-10-14T03:04:33.048Z,40.33
2022-10-14T03:07:02.021Z,43.80
2022-10-14T03:09:29.249Z,46.67
2022-10-14T03:11:58.339Z,43.57
2022-10-14T03:14:25.522Z,34.13
2022-10-14T03:16:53.211Z,37.00
2022-10-14T03:19:23.386Z,50.60
2022-10-14T03:21:53.823Z,37.23
2022-10-14T03:24:22.678Z,39.20
2022-10-14T03:27:03.579Z,41.43
2022-10-14T03:29:31.099Z,39.90
2022-10-14T03:32:10.116Z,34.80
2022-10-14T03:35:08.719Z,35.10
2022-10-14T03:37:35.960Z,38.90
2022-10-14T03:40:05.932Z,37.53
2022-10-14T03:42:34.818Z,39.07
2022-10-14T03:45:01.940Z,38.07
2022-10-14T03:47:30.777Z,40.73
2022-10-14T03:49:58.167Z,39.37
2022-10-14T03:52:34.202Z,34.60
2022-10-14T03:55:10.000Z,32.63
2022-10-14T03:57:37.271Z,42.10
2022-10-14T04:00:06.708Z,37.33
2022-10-14T04:02:42.611Z,38.07
2022-10-14T04:05:23.388Z,29.83
2022-10-14T04:07:50.781Z,34.87
2022-10-14T04:10:19.735Z,36.43
2022-10-14T04:12:51.629Z,37.80
2022-10-14T04:15:28.200Z,34.33
2022-10-14T04:18:24.362Z,36.77
2022-10-14T04:20:54.986Z,31.53
2022-10-14T04:23:25.086Z,41.17
2022-10-14T04:25:57.986Z,34.93
2022-10-14T04:28:25.672Z,32.07
2022-10-14T04:31:01.074Z,33.67
2022-10-14T04:33:34.990Z,31.10
2022-10-14T04:36:10.275Z,30.87
2022-10-14T04:38:40.879Z,31.37
2022-10-14T04:41:11.838Z,36.30
2022-10-14T04:43:45.556Z,31.87
2022-10-14T04:46:25.503Z,29.40
2022-10-14T04:48:52.640Z,26.77
2022-10-14T04:51:22.876Z,35.77
2022-10-14T04:54:08.435Z,29.17
2022-10-14T04:56:50.846Z,35.20
2022-10-14T04:59:18.007Z,28.20
2022-10-14T05:01:53.602Z,30.40
2022-10-14T05:04:21.492Z,23.77
2022-10-14T05:06:50.407Z,30.53
2022-10-14T05:09:19.071Z,29.90
2022-10-14T05:11:46.360Z,29.17
2022-10-14T05:14:17.846Z,27.27
2022-10-14T05:16:48.377Z,29.33
2022-10-14T05:19:22.056Z,23.57
2022-10-14T05:21:51.339Z,29.00
2022-10-14T05:24:27.121Z,26.03
2022-10-14T05:26:54.830Z,27.10
2022-10-14T05:29:23.376Z,25.93
2022-10-14T05:31:51.918Z,28.50
2022-10-14T05:34:31.970Z,24.87
2022-10-14T05:36:59.388Z,21.43
2022-10-14T05:39:30.382Z,27.27
2022-10-14T05:41:57.569Z,21.23
2022-10-14T05:44:28.353Z,22.47
2022-10-14T05:46:55.907Z,21.27
2022-10-14T05:49:24.925Z,23.30
2022-10-14T05:51:53.546Z,24.00
2022-10-14T05:54:23.217Z,22.00
2022-10-14T05:56:53.146Z,23.40
2022-10-14T05:59:20.588Z,19.63
2022-10-14T06:01:49.144Z,19.67
2022-10-14T06:04:17.353Z,21.30
2022-10-14T06:06:44.516Z,22.77
2022-10-14T06:09:11.850Z,24.17
2022-10-14T06:11:39.231Z,19.73
2022-10-14T06:14:06.304Z,19.70
2022-10-14T06:16:33.942Z,23.27
2022-10-14T06:19:06.050Z,22.30
2022-10-14T06:21:33.138Z,14.97
2022-10-14T06:24:00.261Z,22.17
2022-10-14T06:26:27.362Z,23.00
2022-10-14T06:28:54.522Z,19.33
2022-10-14T06:31:21.727Z,20.53
2022-10-14T06:33:48.850Z,20.03
2022-10-14T06:36:17.305Z,15.53
2022-10-14T06:38:44.445Z,18.20
2022-10-14T06:41:11.642Z,20.70
2022-10-14T06:43:38.857Z,19.57
2022-10-14T06:46:06.135Z,16.43
2022-10-14T06:48:33.389Z,27.27
2022-10-14T06:51:00.658Z,20.63
2022-10-14T06:53:29.603Z,18.03
2022-10-14T06:56:00.393Z,15.67
2022-10-14T06:58:27.731Z,19.30
2022-10-14T07:00:54.964Z,17.20
2022-10-14T07:03:22.322Z,20.03
2022-10-14T07:05:49.409Z,21.27
2022-10-14T07:08:16.503Z,18.67
2022-10-14T07:10:44.968Z,21.63
2022-10-14T07:13:12.049Z,22.63
2022-10-14T07:15:39.302Z,17.23
2022-10-14T07:18:06.506Z,17.63
2022-10-14T07:20:34.258Z,28.40
2022-10-14T07:23:01.360Z,18.67
2022-10-14T07:25:28.477Z,18.00
2022-10-14T07:27:56.908Z,14.13
2022-10-14T07:30:24.119Z,18.07
2022-10-14T07:32:51.249Z,15.20
2022-10-14T07:35:18.497Z,17.70
2022-10-14T07:37:45.627Z,17.60
2022-10-14T07:40:13.190Z,13.13
2022-10-14T07:42:40.595Z,14.03
2022-10-14T07:45:10.055Z,12.80
2022-10-14T07:47:37.157Z,22.40
2022-10-14T07:50:04.639Z,16.47
2022-10-14T07:52:31.721Z,13.70
2022-10-14T07:54:58.842Z,17.67
2022-10-14T07:57:26.268Z,17.80
2022-10-14T07:59:53.408Z,17.93
2022-10-14T08:02:22.070Z,20.60
2022-10-14T08:04:52.555Z,15.77
2022-10-14T08:07:20.048Z,18.03
2022-10-14T08:09:47.472Z,21.37
2022-10-14T08:12:14.636Z,16.13
2022-10-14T08:14:41.750Z,22.70
2022-10-14T08:17:08.835Z,20.23
2022-10-14T08:19:37.509Z,16.13
2022-10-14T08:22:04.617Z,20.37
2022-10-14T08:24:31.741Z,19.13
2022-10-14T08:26:59.124Z,18.37
2022-10-14T08:29:26.277Z,17.63
2022-10-14T08:31:53.596Z,16.67
2022-10-14T08:34:20.693Z,13.70
2022-10-14T08:36:49.343Z,17.83
2022-10-14T08:39:17.521Z,13.67
2022-10-14T08:41:53.882Z,14.67
2022-10-14T08:44:22.814Z,10.97
2022-10-14T08:46:52.381Z,14.90
2022-10-14T08:49:22.447Z,16.70
2022-10-14T08:51:54.004Z,10.80
2022-10-14T08:54:25.871Z,10.87
2022-10-14T08:56:53.456Z,12.23
2022-10-14T08:59:21.860Z,12.10
2022-10-14T09:01:50.687Z,10.57
2022-10-14T09:04:17.973Z,11.87
2022-10-14T09:06:46.055Z,11.73
2022-10-14T09:09:16.491Z,14.17
2022-10-14T09:11:44.658Z,9.57
2022-10-14T09:14:16.934Z,11.40
2022-10-14T09:16:44.639Z,8.97
2022-10-14T09:19:15.049Z,9.90
2022-10-14T09:21:53.301Z,6.47
2022-10-14T09:24:23.559Z,9.17
2022-10-14T09:26:52.643Z,9.90
2022-10-14T09:29:26.871Z,9.17
2022-10-14T09:31:54.445Z,8.47
2022-10-14T09:34:29.180Z,10.97
2022-10-14T09:36:58.024Z,9.57
2022-10-14T09:39:28.204Z,11.00
2022-10-14T09:41:55.817Z,8.70
2022-10-14T09:44:23.581Z,6.90
2022-10-14T09:46:52.657Z,8.73
2022-10-14T09:49:21.726Z,10.43
2022-10-14T09:51:48.811Z,8.00
2022-10-14T09:54:23.723Z,7.50
2022-10-14T09:56:58.470Z,9.97
2022-10-14T09:59:25.596Z,7.80
2022-10-14T10:01:54.056Z,10.13
2022-10-14T10:04:25.689Z,9.70
2022-10-14T10:06:53.950Z,8.03
2022-10-14T10:09:21.414Z,9.93
2022-10-14T10:11:48.620Z,9.53
2022-10-14T10:14:18.486Z,8.80
2022-10-14T10:16:45.752Z,9.47
2022-10-14T10:19:26.482Z,9.00
2022-10-14T10:21:53.791Z,11.03
2022-10-14T10:24:24.796Z,12.80
2022-10-14T10:26:54.462Z,9.73
2022-10-14T10:29:26.818Z,10.27
2022-10-14T10:32:08.198Z,10.70
2022-10-14T10:34:53.026Z,9.23
2022-10-14T10:37:25.077Z,9.30
2022-10-14T10:39:57.903Z,8.80
2022-10-14T10:42:27.712Z,9.60
2022-10-14T10:45:02.019Z,9.23
2022-10-14T10:47:32.522Z,10.23
2022-10-14T10:50:10.974Z,12.17
2022-10-14T10:52:44.861Z,9.67
2022-10-14T10:55:18.049Z,10.60
2022-10-14T10:57:53.683Z,10.53
2022-10-14T11:00:22.245Z,11.67
2022-10-14T11:02:54.631Z,12.87
2022-10-14T11:05:24.483Z,17.17
2022-10-14T11:07:58.448Z,14.90
2022-10-14T11:10:33.263Z,15.23
2022-10-14T11:13:04.556Z,17.73
2022-10-14T11:15:40.290Z,12.27
2022-10-14T11:18:10.960Z,14.43
2022-10-14T11:20:42.803Z,13.30
2022-10-14T11:23:31.720Z,12.00
2022-10-14T11:26:03.127Z,16.93
2022-10-14T11:28:33.507Z,18.93
2022-10-14T11:31:04.412Z,16.50
2022-10-14T11:33:41.297Z,12.23
2022-10-14T11:36:15.529Z,18.87
2022-10-14T11:38:54.461Z,18.47
2022-10-14T11:41:25.855Z,17.20
2022-10-14T11:43:54.975Z,17.60
2022-10-14T11:46:25.438Z,15.50
2022-10-14T11:48:54.757Z,17.53
2022-10-14T11:51:23.999Z,17.47
2022-10-14T11:53:59.930Z,20.97
2022-10-14T11:56:40.118Z,14.27
2022-10-14T11:59:14.071Z,24.57
2022-10-14T12:01:44.522Z,18.47
2022-10-14T12:04:19.840Z,21.33
2022-10-14T12:06:47.680Z,23.80
2022-10-14T12:09:17.417Z,21.20
2022-10-14T12:11:46.876Z,18.00
2022-10-14T12:14:18.405Z,21.83
2022-10-14T12:16:48.180Z,19.27
2022-10-14T12:19:20.010Z,19.60
2022-10-14T12:21:50.630Z,21.67
2022-10-14T12:24:19.701Z,26.77
2022-10-14T12:26:50.977Z,16.40
2022-10-14T12:29:19.378Z,18.70
2022-10-14T12:31:50.471Z,16.40
2022-10-14T12:34:27.019Z,21.70
2022-10-14T12:36:54.106Z,21.40
2022-10-14T12:39:34.764Z,19.13
2022-10-14T12:42:03.829Z,23.03
2022-10-14T12:44:34.824Z,22.23
2022-10-14T12:47:04.654Z,26.37
2022-10-14T12:49:33.099Z,23.70
2022-10-14T12:52:01.278Z,23.23
2022-10-14T12:54:29.118Z,23.50
2022-10-14T12:56:58.014Z,25.80
2022-10-14T12:59:28.404Z,26.13
2022-10-14T13:01:57.212Z,25.87
2022-10-14T13:04:26.301Z,22.43
2022-10-14T13:07:28.441Z,26.70
2022-10-14T13:09:59.638Z,23.90
2022-10-14T13:12:41.779Z,24.67
2022-10-14T13:15:23.812Z,21.90
2022-10-14T13:17:50.944Z,25.67
2022-10-14T13:20:36.727Z,23.30
2022-10-14T13:23:21.547Z,27.10
2022-10-14T13:25:51.330Z,25.20
2022-10-14T13:28:23.692Z,26.20
2022-10-14T13:30:55.023Z,28.17
2022-10-14T13:33:25.578Z,28.73
2022-10-14T13:35:57.620Z,27.60
2022-10-14T13:38:26.234Z,22.70
2022-10-14T13:40:54.833Z,22.57
2022-10-14T13:43:23.709Z,27.30
2022-10-14T13:45:52.406Z,22.97
2022-10-14T13:48:21.769Z,25.27
2022-10-14T13:50:51.060Z,24.43
2022-10-14T13:53:19.346Z,22.83
2022-10-14T13:55:53.850Z,29.63
2022-10-14T13:58:22.417Z,26.20
2022-10-14T14:00:59.073Z,20.57
2022-10-14T14:03:29.220Z,22.80
2022-10-14T14:05:56.543Z,23.73
2022-10-14T14:08:42.157Z,21.83
2022-10-14T14:11:18.359Z,24.20
2022-10-14T14:13:53.247Z,26.93
2022-10-14T14:16:24.364Z,19.57
2022-10-14T14:19:04.043Z,28.47
2022-10-14T14:21:34.799Z,26.20
2022-10-14T14:24:02.402Z,28.53
2022-10-14T14:26:34.707Z,25.77
2022-10-14T14:29:04.566Z,25.60
2022-10-14T14:32:01.338Z,26.93
2022-10-14T14:34:20.120Z,27.90
2022-10-14T14:36:51.138Z,25.70
2022-10-14T14:39:22.218Z,24.20
2022-10-14T14:41:54.694Z,24.93
2022-10-14T14:44:26.065Z,23.97
2022-10-14T14:46:55.502Z,20.63
2022-10-14T14:49:25.959Z,22.07
2022-10-14T14:51:53.206Z,18.30
2022-10-14T14:54:21.221Z,19.13
2022-10-14T14:56:50.190Z,23.27
2022-10-14T14:59:27.801Z,17.10
2022-10-14T15:01:55.548Z,17.97
2022-10-14T15:04:23.916Z,18.17
2022-10-14T15:06:52.017Z,17.40
2022-10-14T15:09:22.153Z,19.50
2022-10-14T15:11:50.733Z,21.50
2022-10-14T15:14:30.354Z,28.47
2022-10-14T15:16:57.469Z,19.50
2022-10-14T15:19:30.204Z,17.90
2022-10-14T15:22:10.313Z,17.40
2022-10-14T15:24:56.431Z,18.60
2022-10-14T15:27:44.379Z,18.93
2022-10-14T15:30:19.053Z,16.83
2022-10-14T15:32:46.264Z,22.37
2022-10-14T15:35:13.861Z,17.00
2022-10-14T15:37:41.153Z,18.97
2022-10-14T15:40:12.605Z,18.50
2022-10-14T15:42:39.706Z,19.03
2022-10-14T15:45:07.501Z,17.43
2022-10-14T15:47:36.292Z,17.20
2022-10-14T15:50:05.864Z,20.40
2022-10-14T15:52:33.315Z,21.73
2022-10-14T15:55:00.631Z,19.30
2022-10-14T15:57:27.731Z,17.90
2022-10-14T15:59:54.820Z,20.37
2022-10-14T16:02:28.718Z,14.10
2022-10-14T16:07:44.238Z,17.27
2022-10-14T16:10:13.139Z,21.50
2022-10-14T16:12:40.498Z,14.63
2022-10-14T16:15:16.275Z,16.50
2022-10-14T16:17:43.742Z,15.87
2022-10-14T16:20:13.243Z,14.93
2022-10-14T16:22:40.344Z,17.23
2022-10-14T16:25:09.722Z,17.33
2022-10-14T16:27:36.796Z,19.77
2022-10-14T16:30:04.142Z,19.77
2022-10-14T16:32:31.253Z,19.93
2022-10-14T16:34:58.368Z,19.40
2022-10-14T16:37:26.826Z,21.57
2022-10-14T16:39:53.981Z,20.70
2022-10-14T16:42:21.074Z,25.70
2022-10-14T16:44:48.184Z,23.70
2022-10-14T16:47:15.300Z,19.70
2022-10-14T16:49:44.267Z,21.33
2022-10-14T16:52:11.737Z,27.50
2022-10-14T16:54:40.552Z,21.20
2022-10-14T16:57:07.680Z,20.03
2022-10-14T16:59:34.848Z,22.60
2022-10-14T17:02:02.498Z,22.30
2022-10-14T17:04:29.597Z,18.67
2022-10-14T17:06:59.856Z,22.97
2022-10-14T17:09:26.930Z,16.83
2022-10-14T17:11:55.721Z,19.90
2022-10-14T17:14:22.780Z,17.83
2022-10-14T17:16:49.878Z,21.07
2022-10-14T17:19:16.956Z,24.10
2022-10-14T17:21:44.042Z,21.83
2022-10-14T17:24:12.887Z,20.40
2022-10-14T17:26:39.988Z,22.40
2022-10-14T17:29:08.449Z,19.93
2022-10-14T17:31:35.519Z,22.27
2022-10-14T17:34:02.641Z,21.90
2022-10-14T17:36:30.059Z,26.53
2022-10-14T17:38:57.507Z,23.03
2022-10-14T17:41:25.393Z,18.03
2022-10-14T17:43:52.900Z,18.43
2022-10-14T17:46:22.055Z,16.70
2022-10-14T17:48:50.060Z,18.77
2022-10-14T17:51:17.510Z,20.73
2022-10-14T17:53:44.686Z,17.53
2022-10-14T17:56:12.487Z,18.43
2022-10-14T17:58:39.767Z,21.20
2022-10-14T18:01:07.672Z,22.10
2022-10-14T18:03:36.814Z,18.77
2022-10-14T18:06:10.638Z,20.63
2022-10-14T18:08:37.725Z,20.13
2022-10-14T18:11:10.036Z,16.97
2022-10-14T18:13:41.398Z,22.10
2022-10-14T18:16:09.496Z,17.53
2022-10-14T18:18:38.300Z,21.90
2022-10-14T18:21:05.775Z,20.73
2022-10-14T18:23:33.072Z,22.40
2022-10-14T18:26:03.868Z,22.43
2022-10-14T18:28:32.537Z,17.87
2022-10-14T18:31:03.830Z,23.17
2022-10-14T18:33:31.947Z,18.57
2022-10-14T18:36:00.425Z,20.30
2022-10-14T18:38:27.520Z,22.93
2022-10-14T18:43:30.854Z,25.67
2022-10-14T18:46:04.942Z,25.50
2022-10-14T18:48:32.135Z,25.60
2022-10-14T18:51:00.917Z,19.43
2022-10-14T18:53:28.146Z,21.33
2022-10-14T18:55:58.086Z,17.60
2022-10-14T18:58:27.963Z,20.60
2022-10-14T19:00:55.171Z,19.73
2022-10-14T19:03:22.600Z,20.90
2022-10-14T19:05:49.730Z,24.10
2022-10-14T19:08:18.148Z,20.57
2022-10-14T19:10:45.246Z,25.10
2022-10-14T19:13:12.314Z,22.23
2022-10-14T19:15:43.857Z,21.83
2022-10-14T19:18:12.408Z,21.47
2022-10-14T19:20:39.512Z,27.13
2022-10-14T19:23:06.608Z,24.00
2022-10-14T19:25:35.902Z,20.57
2022-10-14T19:28:03.012Z,20.03
2022-10-14T19:30:30.142Z,19.70
2022-10-14T19:32:57.242Z,22.57
2022-10-14T19:35:24.349Z,22.60
2022-10-14T19:37:51.781Z,19.90
2022-10-14T19:40:21.393Z,20.07
2022-10-14T19:42:52.109Z,39.23
2022-10-14T19:45:19.219Z,24.50
2022-10-14T19:47:46.336Z,22.07
2022-10-14T19:50:13.606Z,25.00
2022-10-14T19:52:40.703Z,23.37
2022-10-14T19:55:08.517Z,20.53
2022-10-14T19:57:35.630Z,21.07
2022-10-14T20:00:04.255Z,23.37
2022-10-14T20:02:31.679Z,20.97
2022-10-14T20:04:58.800Z,20.57
2022-10-14T20:07:26.115Z,22.77
2022-10-14T20:09:53.323Z,20.53
2022-10-14T20:12:20.632Z,21.00
2022-10-14T20:14:47.938Z,21.33
2022-10-14T20:17:16.433Z,26.17
2022-10-14T20:19:43.573Z,21.33
2022-10-14T20:22:10.691Z,20.70
2022-10-14T20:24:37.770Z,20.80
2022-10-14T20:27:07.965Z,20.47
2022-10-14T20:29:38.154Z,25.00
2022-10-14T20:32:05.367Z,22.03
2022-10-14T20:34:33.995Z,28.47
2022-10-14T20:37:01.148Z,24.47
2022-10-14T20:39:28.286Z,23.20
2022-10-14T20:41:55.390Z,21.77
2022-10-14T20:44:23.903Z,24.60
2022-10-14T20:46:51.310Z,23.70
2022-10-14T20:49:18.419Z,24.87
2022-10-14T20:51:46.854Z,23.40
2022-10-14T20:54:13.962Z,24.43
2022-10-14T20:56:41.058Z,22.20
2022-10-14T20:59:09.073Z,21.23
2022-10-14T21:01:37.082Z,21.87
2022-10-14T21:04:04.795Z,21.97
2022-10-14T21:06:32.053Z,19.73
2022-10-14T21:09:00.963Z,22.03
2022-10-14T21:11:28.121Z,18.37
2022-10-14T21:13:56.058Z,21.27
2022-10-14T21:16:24.198Z,20.63
2022-10-14T21:18:55.234Z,21.47
2022-10-14T21:21:25.322Z,15.30
2022-10-14T21:23:52.441Z,31.93
2022-10-14T21:26:20.894Z,19.70
2022-10-14T21:28:48.092Z,16.80
2022-10-14T21:31:18.862Z,22.23
2022-10-14T21:33:46.672Z,19.60
2022-10-14T21:36:14.801Z,14.90
2022-10-14T21:38:42.390Z,20.77
2022-10-14T21:41:09.645Z,18.50
2022-10-14T21:43:38.527Z,17.27
2022-10-14T21:46:06.801Z,14.40
2022-10-14T21:48:33.939Z,17.67
2022-10-14T21:51:04.907Z,14.63
2022-10-14T21:53:32.053Z,16.70
2022-10-14T21:55:59.153Z,17.27
2022-10-14T21:58:26.760Z,16.97
2022-10-14T22:01:02.451Z,17.63
2022-10-14T22:03:29.752Z,15.20
2022-10-14T22:06:00.356Z,14.80
2022-10-14T22:08:29.877Z,18.67
2022-10-14T22:10:57.009Z,21.60
2022-10-14T22:13:24.228Z,14.80
2022-10-14T22:15:51.344Z,18.20
2022-10-14T22:18:19.765Z,15.57
2022-10-14T22:20:46.908Z,18.27
2022-10-14T22:23:14.088Z,15.57
2022-10-14T22:25:41.241Z,17.30
2022-10-14T22:28:08.579Z,22.50
2022-10-14T22:30:35.962Z,25.67
2022-10-14T22:33:03.076Z,20.57
2022-10-14T22:35:31.563Z,19.87
2022-10-14T22:37:58.659Z,14.77
2022-10-14T22:40:25.749Z,22.93
2022-10-14T22:42:52.887Z,18.23
2022-10-14T22:45:20.045Z,18.90
2022-10-14T22:47:47.154Z,20.80
2022-10-14T22:50:14.246Z,18.03
2022-10-14T22:52:42.665Z,17.20
2022-10-14T22:55:10.195Z,17.20
2022-10-14T22:57:37.359Z,21.20
2022-10-14T23:00:05.251Z,17.70
2022-10-14T23:02:32.395Z,20.50
2022-10-14T23:04:59.518Z,17.87
2022-10-14T23:07:26.863Z,17.73
2022-10-14T23:09:55.322Z,14.67
2022-10-14T23:12:22.804Z,20.30
2022-10-14T23:14:49.987Z,17.53
2022-10-14T23:17:17.069Z,19.07
2022-10-14T23:19:44.164Z,14.60
2022-10-14T23:22:11.229Z,17.10
2022-10-14T23:24:38.313Z,15.03
2022-10-14T23:27:06.718Z,18.40
2022-10-14T23:29:33.789Z,22.23
2022-10-14T23:32:00.891Z,20.80
2022-10-14T23:34:28.161Z,18.60
2022-10-14T23:39:27.413Z,17.20
2022-10-14T23:41:54.514Z,19.40
2022-10-14T23:44:22.992Z,17.80
2022-10-14T23:46:50.100Z,15.77
2022-10-14T23:49:31.536Z,15.83
2022-10-14T23:51:58.679Z,14.27
2022-10-14T23:54:25.788Z,15.63
2022-10-14T23:56:52.885Z,15.40
2022-10-14T23:59:19.993Z,17.33
